createdAt,value
2023-03-15T00:00:57.771Z,99.90
2023-03-15T00:02:00.848Z,99.90
2023-03-15T00:03:04.716Z,99.90
2023-03-15T00:04:06.541Z,99.90
2023-03-15T00:05:12.929Z,99.90
2023-03-15T00:06:15.018Z,99.90
2023-03-15T00:07:16.724Z,99.90
2023-03-15T00:08:19.231Z,99.90
2023-03-15T00:09:22.212Z,99.90
2023-03-15T00:10:24.041Z,99.90
2023-03-15T00:11:25.852Z,99.90
2023-03-15T00:12:27.647Z,99.90
2023-03-15T00:13:29.405Z,99.90
2023-03-15T00:14:31.717Z,99.90
2023-03-15T00:15:33.750Z,99.90
2023-03-15T00:16:35.575Z,99.90
2023-03-15T00:17:37.309Z,99.90
2023-03-15T00:18:39.120Z,99.90
2023-03-15T00:19:40.873Z,99.90
2023-03-15T00:20:42.789Z,99.90
2023-03-15T00:21:44.574Z,99.90
2023-03-15T00:22:46.259Z,99.90
2023-03-15T00:23:48.687Z,99.90
2023-03-15T00:24:50.395Z,99.90
2023-03-15T00:25:53.060Z,99.90
2023-03-15T00:26:54.767Z,99.90
2023-03-15T00:27:56.488Z,99.90
2023-03-15T00:28:58.272Z,99.90
2023-03-15T00:30:00.189Z,99.90
2023-03-15T00:31:16.710Z,99.90
2023-03-15T00:32:18.484Z,99.90
2023-03-15T00:33:21.546Z,99.90
2023-03-15T00:34:25.913Z,99.90
2023-03-15T00:35:27.667Z,99.90
2023-03-15T00:36:29.337Z,99.90
2023-03-15T00:37:32.014Z,99.90
2023-03-15T00:38:34.597Z,99.90
2023-03-15T00:39:37.829Z,99.90
2023-03-15T00:40:39.712Z,99.90
2023-03-15T00:41:41.426Z,99.90
2023-03-15T00:42:50.031Z,99.90
2023-03-15T00:43:52.258Z,99.90
2023-03-15T00:44:57.395Z,99.90
2023-03-15T00:45:59.263Z,99.90
2023-03-15T00:47:00.981Z,99.90
2023-03-15T00:48:02.809Z,99.90
2023-03-15T00:49:04.942Z,99.90
2023-03-15T00:50:08.140Z,99.90
2023-03-15T00:51:12.774Z,99.90
2023-03-15T00:52:14.512Z,99.90
2023-03-15T00:53:16.288Z,99.90
2023-03-15T00:54:17.998Z,99.90
2023-03-15T00:55:21.558Z,99.90
2023-03-15T00:56:29.905Z,99.90
2023-03-15T00:57:34.322Z,99.90
2023-03-15T00:58:36.316Z,99.90
2023-03-15T00:59:38.097Z,99.90
2023-03-15T01:00:39.943Z,99.90
2023-03-15T01:01:44.813Z,99.90
2023-03-15T01:02:47.383Z,99.90
2023-03-15T01:03:49.540Z,99.90
2023-03-15T01:04:51.399Z,99.90
2023-03-15T01:05:53.151Z,99.90
2023-03-15T01:06:54.928Z,99.90
2023-03-15T01:07:56.651Z,99.90
2023-03-15T01:08:58.901Z,99.90
2023-03-15T01:10:05.087Z,99.90
2023-03-15T01:11:10.367Z,99.90
2023-03-15T01:12:12.097Z,99.90
2023-03-15T01:13:13.765Z,99.90
2023-03-15T01:14:15.649Z,99.90
2023-03-15T01:15:17.498Z,99.90
2023-03-15T01:16:19.370Z,99.90
2023-03-15T01:17:21.640Z,99.90
2023-03-15T01:18:23.416Z,99.90
2023-03-15T01:19:25.074Z,99.90
2023-03-15T01:20:27.102Z,99.90
2023-03-15T01:21:28.892Z,99.90
2023-03-15T01:22:30.673Z,99.90
2023-03-15T01:23:32.673Z,99.90
2023-03-15T01:24:34.411Z,99.90
2023-03-15T01:25:36.125Z,99.90
2023-03-15T01:26:37.936Z,99.90
2023-03-15T01:27:39.627Z,99.90
2023-03-15T01:28:42.204Z,99.90
2023-03-15T01:29:44.095Z,99.90
2023-03-15T01:30:52.685Z,99.90
2023-03-15T01:31:54.491Z,99.90
2023-03-15T01:32:57.077Z,99.90
2023-03-15T01:34:00.834Z,99.90
2023-03-15T01:35:02.632Z,99.90
2023-03-15T01:36:07.369Z,99.90
2023-03-15T01:37:10.405Z,99.90
2023-03-15T01:38:12.696Z,99.90
2023-03-15T01:39:14.424Z,99.90
2023-03-15T01:40:16.112Z,99.90
2023-03-15T01:41:18.983Z,99.90
2023-03-15T01:42:20.793Z,99.90
2023-03-15T01:43:24.825Z,99.90
2023-03-15T01:44:51.625Z,99.90
2023-03-15T01:45:53.276Z,99.90
2023-03-15T01:46:55.037Z,99.90
2023-03-15T01:47:57.119Z,99.90
2023-03-15T01:49:07.742Z,99.90
2023-03-15T01:50:11.614Z,99.90
2023-03-15T01:52:02.039Z,99.90
2023-03-15T01:53:03.837Z,99.90
2023-03-15T01:54:24.428Z,99.90
2023-03-15T01:55:26.187Z,99.90
2023-03-15T01:56:28.829Z,99.90
2023-03-15T01:57:37.437Z,99.90
2023-03-15T01:58:43.659Z,99.90
2023-03-15T02:00:12.057Z,99.90
2023-03-15T02:01:15.961Z,99.90
2023-03-15T02:02:19.232Z,99.90
2023-03-15T02:03:28.008Z,99.90
2023-03-15T02:04:37.950Z,99.90
2023-03-15T02:05:46.399Z,99.90
2023-03-15T02:06:48.483Z,99.90
2023-03-15T02:07:50.733Z,99.90
2023-03-15T02:08:57.501Z,99.90
2023-03-15T02:10:01.795Z,99.90
2023-03-15T02:11:05.176Z,99.90
2023-03-15T02:12:07.280Z,99.90
2023-03-15T02:13:09.965Z,99.90
2023-03-15T02:14:14.387Z,99.90
2023-03-15T02:15:16.363Z,99.90
2023-03-15T02:16:18.969Z,99.90
2023-03-15T02:17:25.186Z,99.90
2023-03-15T02:18:27.297Z,99.90
2023-03-15T02:19:36.799Z,99.90
2023-03-15T02:20:42.733Z,99.90
2023-03-15T02:21:44.367Z,99.90
2023-03-15T02:23:05.048Z,99.90
2023-03-15T02:24:21.585Z,99.90
2023-03-15T02:25:42.232Z,99.90
2023-03-15T02:26:51.877Z,99.90
2023-03-15T02:27:54.390Z,99.90
2023-03-15T02:28:56.158Z,99.90
2023-03-15T02:29:58.318Z,99.90
2023-03-15T02:31:00.541Z,99.90
2023-03-15T02:32:04.797Z,99.90
2023-03-15T02:33:14.691Z,99.90
2023-03-15T02:34:16.489Z,99.90
2023-03-15T02:35:30.069Z,99.90
2023-03-15T02:36:34.886Z,99.90
2023-03-15T02:37:36.632Z,99.90
2023-03-15T02:38:38.357Z,99.90
2023-03-15T02:39:40.041Z,99.90
2023-03-15T02:40:41.845Z,99.90
2023-03-15T02:41:48.040Z,99.90
2023-03-15T02:42:54.666Z,99.90
2023-03-15T02:44:01.903Z,99.90
2023-03-15T02:45:04.184Z,99.90
2023-03-15T02:46:06.670Z,99.90
2023-03-15T02:47:16.590Z,99.90
2023-03-15T02:48:19.063Z,99.90
2023-03-15T02:49:25.372Z,99.90
2023-03-15T02:50:27.098Z,99.90
2023-03-15T02:51:30.512Z,99.90
2023-03-15T02:52:32.216Z,99.90
2023-03-15T02:53:33.979Z,99.90
2023-03-15T02:54:36.506Z,99.90
2023-03-15T02:55:38.801Z,99.90
2023-03-15T02:56:41.049Z,99.90
2023-03-15T02:57:42.817Z,99.90
2023-03-15T02:58:48.029Z,99.90
2023-03-15T02:59:51.055Z,99.90
2023-03-15T03:00:53.915Z,99.90
2023-03-15T03:01:55.749Z,99.90
2023-03-15T03:02:57.950Z,99.90
2023-03-15T03:03:59.634Z,99.90
2023-03-15T03:05:01.420Z,99.90
2023-03-15T03:06:03.211Z,99.90
2023-03-15T03:07:05.530Z,99.90
2023-03-15T03:08:07.237Z,99.90
2023-03-15T03:09:08.982Z,99.90
2023-03-15T03:10:13.146Z,99.90
2023-03-15T03:11:15.900Z,99.90
2023-03-15T03:12:18.121Z,99.90
2023-03-15T03:13:19.885Z,99.90
2023-03-15T03:14:23.880Z,99.90
2023-03-15T03:15:25.642Z,99.90
2023-03-15T03:16:27.466Z,99.90
2023-03-15T03:17:29.245Z,99.90
2023-03-15T03:18:35.915Z,99.90
2023-03-15T03:19:37.663Z,99.90
2023-03-15T03:20:39.323Z,99.90
2023-03-15T03:21:44.950Z,99.90
2023-03-15T03:22:46.835Z,99.90
2023-03-15T03:23:48.518Z,99.90
2023-03-15T03:24:53.397Z,99.90
2023-03-15T03:25:56.495Z,99.90
2023-03-15T03:26:58.319Z,99.90
2023-03-15T03:28:00.091Z,99.90
2023-03-15T03:29:01.798Z,99.90
2023-03-15T03:30:05.746Z,99.90
2023-03-15T03:31:07.473Z,99.90
2023-03-15T03:32:09.798Z,99.90
2023-03-15T03:33:11.620Z,99.90
2023-03-15T03:34:15.673Z,99.90
2023-03-15T03:35:17.772Z,99.90
2023-03-15T03:36:19.906Z,99.90
2023-03-15T03:37:21.904Z,99.90
2023-03-15T03:38:23.564Z,99.90
2023-03-15T03:39:25.351Z,99.90
2023-03-15T03:40:27.155Z,99.90
2023-03-15T03:41:28.971Z,99.90
2023-03-15T03:42:30.666Z,99.90
2023-03-15T03:43:32.390Z,99.90
2023-03-15T03:44:34.137Z,99.90
2023-03-15T03:45:36.015Z,99.90
2023-03-15T03:46:37.867Z,99.90
2023-03-15T03:47:39.665Z,99.90
2023-03-15T03:48:41.437Z,99.90
2023-03-15T03:49:43.144Z,99.90
2023-03-15T03:50:44.879Z,99.90
2023-03-15T03:51:46.711Z,99.90
2023-03-15T03:52:48.576Z,99.90
2023-03-15T03:53:50.259Z,99.90
2023-03-15T03:54:51.988Z,99.90
2023-03-15T03:55:54.550Z,99.90
2023-03-15T03:56:56.692Z,99.90
2023-03-15T03:57:58.365Z,99.90
2023-03-15T03:59:00.070Z,99.90
2023-03-15T04:00:01.811Z,99.90
2023-03-15T04:01:04.173Z,99.90
2023-03-15T04:02:06.386Z,99.90
2023-03-15T04:03:09.090Z,99.90
2023-03-15T04:04:14.221Z,99.90
2023-03-15T04:05:16.138Z,99.90
2023-03-15T04:06:18.141Z,99.90
2023-03-15T04:07:19.819Z,99.90
2023-03-15T04:08:22.794Z,99.90
2023-03-15T04:09:25.118Z,99.90
2023-03-15T04:10:27.063Z,99.90
2023-03-15T04:11:29.396Z,99.90
2023-03-15T04:12:31.294Z,99.90
2023-03-15T04:13:33.573Z,99.90
2023-03-15T04:14:35.292Z,99.90
2023-03-15T04:15:37.061Z,99.90
2023-03-15T04:16:39.017Z,99.90
2023-03-15T04:17:40.805Z,99.90
2023-03-15T04:18:42.520Z,99.90
2023-03-15T04:19:46.942Z,99.90
2023-03-15T04:20:48.893Z,99.90
2023-03-15T04:21:52.453Z,99.90
2023-03-15T04:22:55.182Z,99.90
2023-03-15T04:23:56.944Z,99.90
2023-03-15T04:24:58.659Z,99.90
2023-03-15T04:26:00.348Z,99.90
2023-03-15T04:27:02.661Z,99.90
2023-03-15T04:28:04.375Z,99.90
2023-03-15T04:29:06.196Z,99.90
2023-03-15T04:30:08.610Z,99.90
2023-03-15T04:31:14.731Z,99.90
2023-03-15T04:32:18.134Z,99.90
2023-03-15T04:33:19.874Z,99.90
2023-03-15T04:34:21.609Z,99.90
2023-03-15T04:35:23.542Z,99.90
2023-03-15T04:36:25.272Z,99.90
2023-03-15T04:37:26.975Z,99.90
2023-03-15T04:38:29.290Z,99.90
2023-03-15T04:39:31.749Z,99.90
2023-03-15T04:40:36.868Z,99.90
2023-03-15T04:41:39.547Z,99.90
2023-03-15T04:42:41.317Z,99.90
2023-03-15T04:43:43.726Z,99.90
2023-03-15T04:44:45.449Z,99.90
2023-03-15T04:45:47.214Z,99.90
2023-03-15T04:46:48.918Z,99.90
2023-03-15T04:47:52.011Z,99.90
2023-03-15T04:48:53.750Z,99.90
2023-03-15T04:49:55.485Z,99.90
2023-03-15T04:50:57.518Z,99.90
2023-03-15T04:51:59.215Z,99.90
2023-03-15T04:53:01.632Z,99.90
2023-03-15T04:54:03.730Z,99.90
2023-03-15T04:55:05.826Z,99.90
2023-03-15T04:56:07.738Z,99.90
2023-03-15T04:57:09.454Z,99.90
2023-03-15T04:58:11.118Z,99.90
2023-03-15T04:59:12.962Z,99.90
2023-03-15T05:00:15.029Z,99.90
2023-03-15T05:01:17.252Z,99.90
2023-03-15T05:02:19.037Z,99.90
2023-03-15T05:03:20.905Z,99.90
2023-03-15T05:04:22.661Z,99.90
2023-03-15T05:05:24.510Z,99.90
2023-03-15T05:06:26.481Z,99.90
2023-03-15T05:07:28.175Z,99.90
2023-03-15T05:08:29.888Z,99.90
2023-03-15T05:09:39.836Z,99.90
2023-03-15T05:10:41.891Z,99.90
2023-03-15T05:11:43.625Z,99.90
2023-03-15T05:12:45.415Z,99.90
2023-03-15T05:13:47.087Z,99.90
2023-03-15T05:14:48.948Z,99.90
2023-03-15T05:15:51.059Z,99.90
2023-03-15T05:16:55.930Z,99.90
2023-03-15T05:17:57.682Z,99.90
2023-03-15T05:18:59.436Z,99.90
2023-03-15T05:20:01.855Z,99.90
2023-03-15T05:21:06.502Z,99.90
2023-03-15T05:22:08.529Z,99.90
2023-03-15T05:23:10.220Z,99.90
2023-03-15T05:24:11.975Z,99.90
2023-03-15T05:25:13.926Z,99.90
2023-03-15T05:26:15.713Z,99.90
2023-03-15T05:27:17.392Z,99.90
2023-03-15T05:28:19.133Z,99.90
2023-03-15T05:29:22.628Z,99.90
2023-03-15T05:30:24.399Z,99.90
2023-03-15T05:31:26.171Z,99.90
2023-03-15T05:32:27.982Z,99.90
2023-03-15T05:33:29.826Z,99.90
2023-03-15T05:34:32.233Z,99.90
2023-03-15T05:35:34.218Z,99.90
2023-03-15T05:36:36.500Z,99.90
2023-03-15T05:37:38.683Z,99.90
2023-03-15T05:38:43.968Z,99.90
2023-03-15T05:39:46.916Z,99.90
2023-03-15T05:40:48.831Z,99.90
2023-03-15T05:41:50.653Z,99.90
2023-03-15T05:42:52.368Z,99.90
2023-03-15T05:43:54.153Z,99.90
2023-03-15T05:44:57.292Z,99.90
2023-03-15T05:45:59.050Z,99.90
2023-03-15T05:47:00.811Z,99.90
2023-03-15T05:48:02.598Z,99.90
2023-03-15T05:49:04.409Z,99.90
2023-03-15T05:50:06.523Z,99.90
2023-03-15T05:51:08.360Z,99.90
2023-03-15T05:52:10.137Z,99.90
2023-03-15T05:53:11.924Z,99.90
2023-03-15T05:54:13.844Z,99.90
2023-03-15T05:55:15.670Z,99.90
2023-03-15T05:56:17.471Z,99.90
2023-03-15T05:57:19.278Z,99.90
2023-03-15T05:58:21.057Z,99.90
2023-03-15T05:59:22.798Z,99.90
2023-03-15T06:00:24.660Z,99.90
2023-03-15T06:01:26.338Z,99.90
2023-03-15T06:02:28.115Z,99.90
2023-03-15T06:03:31.578Z,99.90
2023-03-15T06:04:33.487Z,99.90
2023-03-15T06:05:35.211Z,99.90
2023-03-15T06:06:36.929Z,99.90
2023-03-15T06:07:38.744Z,99.90
2023-03-15T06:08:40.427Z,99.90
2023-03-15T06:09:42.097Z,99.90
2023-03-15T06:10:43.906Z,99.90
2023-03-15T06:11:45.680Z,99.90
2023-03-15T06:12:47.425Z,99.90
2023-03-15T06:13:49.159Z,99.90
2023-03-15T06:14:51.473Z,99.90
2023-03-15T06:15:53.235Z,99.90
2023-03-15T06:16:54.965Z,99.90
2023-03-15T06:17:56.790Z,99.90
2023-03-15T06:18:58.532Z,99.90
2023-03-15T06:20:00.229Z,99.90
2023-03-15T06:21:01.934Z,99.90
2023-03-15T06:22:03.645Z,99.90
2023-03-15T06:23:05.404Z,99.90
2023-03-15T06:24:07.496Z,99.90
2023-03-15T06:25:09.766Z,99.90
2023-03-15T06:26:11.501Z,99.90
2023-03-15T06:27:13.504Z,99.90
2023-03-15T06:28:15.276Z,99.90
2023-03-15T06:29:17.332Z,99.90
2023-03-15T06:30:20.562Z,99.90
2023-03-15T06:31:22.308Z,99.90
2023-03-15T06:32:24.110Z,99.90
2023-03-15T06:33:25.911Z,99.90
2023-03-15T06:34:27.663Z,99.90
2023-03-15T06:35:29.485Z,99.90
2023-03-15T06:36:31.811Z,99.90
2023-03-15T06:37:35.580Z,99.90
2023-03-15T06:38:37.546Z,99.90
2023-03-15T06:39:39.845Z,99.90
2023-03-15T06:40:41.582Z,99.90
2023-03-15T06:41:43.381Z,99.90
2023-03-15T06:42:45.105Z,99.90
2023-03-15T06:43:46.932Z,99.90
2023-03-15T06:44:50.823Z,99.90
2023-03-15T06:45:56.851Z,99.90
2023-03-15T06:46:58.670Z,99.90
2023-03-15T06:48:00.386Z,99.90
2023-03-15T06:49:02.261Z,99.90
2023-03-15T06:50:04.864Z,99.90
2023-03-15T06:51:06.625Z,99.90
2023-03-15T06:52:08.465Z,99.90
2023-03-15T06:53:10.299Z,99.90
2023-03-15T06:54:12.176Z,99.90
2023-03-15T06:55:18.149Z,99.90
2023-03-15T06:56:19.972Z,99.90
2023-03-15T06:57:21.698Z,99.90
2023-03-15T06:58:23.444Z,99.90
2023-03-15T06:59:25.415Z,99.90
2023-03-15T07:00:27.558Z,99.90
2023-03-15T07:01:29.312Z,99.90
2023-03-15T07:02:37.112Z,99.90
2023-03-15T07:03:39.003Z,99.90
2023-03-15T07:04:40.729Z,99.90
2023-03-15T07:05:42.617Z,99.90
2023-03-15T07:06:44.339Z,99.90
2023-03-15T07:07:46.051Z,99.90
2023-03-15T07:08:47.805Z,99.90
2023-03-15T07:09:49.555Z,99.90
2023-03-15T07:10:52.012Z,99.90
2023-03-15T07:11:53.773Z,99.90
2023-03-15T07:12:55.499Z,99.90
2023-03-15T07:13:57.466Z,99.90
2023-03-15T07:14:59.161Z,99.90
2023-03-15T07:16:00.993Z,99.90
2023-03-15T07:17:02.837Z,99.90
2023-03-15T07:18:04.591Z,99.90
2023-03-15T07:19:06.375Z,99.90
2023-03-15T07:20:08.615Z,99.90
2023-03-15T07:21:10.488Z,99.90
2023-03-15T07:22:12.210Z,99.90
2023-03-15T07:23:14.405Z,99.90
2023-03-15T07:24:16.328Z,99.90
2023-03-15T07:25:23.845Z,99.90
2023-03-15T07:26:25.594Z,99.90
2023-03-15T07:27:27.474Z,99.90
2023-03-15T07:28:29.669Z,99.90
2023-03-15T07:29:31.615Z,99.90
2023-03-15T07:30:33.311Z,99.90
2023-03-15T07:31:35.138Z,99.90
2023-03-15T07:32:39.005Z,99.90
2023-03-15T07:33:41.086Z,99.90
2023-03-15T07:34:42.776Z,99.90
2023-03-15T07:35:44.592Z,99.90
2023-03-15T07:36:46.277Z,99.90
2023-03-15T07:37:48.169Z,99.90
2023-03-15T07:38:50.037Z,99.90
2023-03-15T07:39:52.029Z,99.90
2023-03-15T07:40:53.809Z,99.90
2023-03-15T07:41:55.545Z,99.90
2023-03-15T07:42:57.273Z,99.90
2023-03-15T07:43:59.098Z,99.90
2023-03-15T07:45:00.860Z,99.90
2023-03-15T07:46:03.869Z,99.90
2023-03-15T07:47:05.734Z,99.90
2023-03-15T07:48:07.484Z,99.90
2023-03-15T07:49:09.181Z,99.90
2023-03-15T07:50:13.223Z,99.90
2023-03-15T07:51:16.686Z,99.90
2023-03-15T07:52:18.423Z,99.90
2023-03-15T07:53:20.285Z,99.90
2023-03-15T07:54:22.996Z,99.90
2023-03-15T07:55:25.400Z,99.90
2023-03-15T07:56:27.148Z,99.90
2023-03-15T07:57:29.052Z,99.90
2023-03-15T07:58:31.213Z,99.90
2023-03-15T07:59:33.655Z,99.90
2023-03-15T08:00:35.436Z,99.90
2023-03-15T08:01:37.160Z,99.90
2023-03-15T08:02:39.802Z,99.90
2023-03-15T08:03:41.612Z,99.90
2023-03-15T08:04:43.379Z,99.90
2023-03-15T08:05:45.141Z,99.90
2023-03-15T08:06:46.890Z,99.90
2023-03-15T08:07:49.407Z,99.90
2023-03-15T08:08:51.320Z,99.90
2023-03-15T08:09:53.008Z,99.90
2023-03-15T08:10:55.904Z,99.90
2023-03-15T08:11:57.692Z,99.90
2023-03-15T08:12:59.429Z,99.90
2023-03-15T08:14:01.134Z,99.90
2023-03-15T08:15:02.850Z,99.90
2023-03-15T08:16:05.074Z,99.90
2023-03-15T08:17:07.257Z,99.90
2023-03-15T08:18:09.135Z,99.90
2023-03-15T08:19:11.011Z,99.90
2023-03-15T08:20:14.913Z,99.90
2023-03-15T08:21:16.729Z,99.90
2023-03-15T08:22:18.506Z,99.90
2023-03-15T08:23:20.368Z,99.90
2023-03-15T08:24:22.911Z,99.90
2023-03-15T08:25:25.438Z,99.90
2023-03-15T08:26:27.204Z,99.90
2023-03-15T08:27:29.055Z,99.90
2023-03-15T08:28:31.089Z,99.90
2023-03-15T08:29:32.849Z,99.90
2023-03-15T08:30:34.717Z,99.90
2023-03-15T08:31:36.933Z,99.90
2023-03-15T08:32:40.102Z,99.90
2023-03-15T08:33:42.025Z,99.90
2023-03-15T08:34:44.044Z,99.90
2023-03-15T08:35:45.985Z,99.90
2023-03-15T08:36:48.653Z,99.90
2023-03-15T08:37:52.497Z,99.90
2023-03-15T08:38:54.294Z,99.90
2023-03-15T08:39:58.200Z,99.90
2023-03-15T08:41:00.261Z,99.90
2023-03-15T08:42:02.225Z,99.90
2023-03-15T08:43:03.946Z,99.90
2023-03-15T08:44:05.721Z,99.90
2023-03-15T08:45:08.962Z,99.90
2023-03-15T08:46:10.770Z,99.90
2023-03-15T08:47:12.517Z,99.90
2023-03-15T08:48:14.446Z,99.90
2023-03-15T08:49:16.158Z,99.90
2023-03-15T08:50:19.168Z,99.90
2023-03-15T08:51:21.818Z,99.90
2023-03-15T08:52:23.548Z,99.90
2023-03-15T08:53:25.236Z,99.90
2023-03-15T08:54:27.587Z,99.90
2023-03-15T08:55:29.595Z,99.90
2023-03-15T08:56:32.485Z,99.90
2023-03-15T08:57:34.307Z,99.90
2023-03-15T08:58:36.147Z,99.90
2023-03-15T08:59:37.884Z,99.90
2023-03-15T09:00:39.789Z,99.90
2023-03-15T09:01:41.549Z,99.90
2023-03-15T09:02:43.586Z,99.90
2023-03-15T09:03:45.372Z,99.90
2023-03-15T09:04:47.219Z,97.60
2023-03-15T09:05:49.636Z,99.90
2023-03-15T09:06:51.330Z,99.90
2023-03-15T09:07:53.338Z,99.90
2023-03-15T09:08:55.479Z,99.90
2023-03-15T09:09:57.291Z,96.60
2023-03-15T09:10:59.803Z,94.90
2023-03-15T09:12:01.794Z,93.10
2023-03-15T09:13:04.470Z,96.50
2023-03-15T09:14:06.185Z,98.80
2023-03-15T09:15:08.749Z,91.80
2023-03-15T09:16:10.511Z,90.70
2023-03-15T09:17:12.362Z,98.00
2023-03-15T09:18:14.188Z,93.30
2023-03-15T09:19:15.988Z,95.60
2023-03-15T09:20:19.204Z,98.40
2023-03-15T09:21:21.271Z,99.90
2023-03-15T09:22:38.652Z,94.50
2023-03-15T09:23:41.598Z,98.10
2023-03-15T09:24:43.354Z,95.20
2023-03-15T09:25:45.228Z,99.90
2023-03-15T09:26:47.289Z,94.40
2023-03-15T09:27:49.293Z,91.00
2023-03-15T09:28:51.077Z,97.00
2023-03-15T09:29:52.832Z,96.10
2023-03-15T09:30:54.805Z,90.10
2023-03-15T09:31:57.295Z,90.90
2023-03-15T09:32:59.140Z,90.30
2023-03-15T09:34:01.031Z,92.90
2023-03-15T09:35:05.293Z,89.50
2023-03-15T09:36:07.629Z,90.30
2023-03-15T09:37:09.840Z,86.20
2023-03-15T09:38:11.796Z,91.20
2023-03-15T09:39:13.495Z,95.80
2023-03-15T09:40:29.501Z,89.60
2023-03-15T09:41:45.791Z,82.40
2023-03-15T09:42:57.082Z,85.20
2023-03-15T09:44:26.783Z,84.80
2023-03-15T09:45:35.533Z,90.80
2023-03-15T09:47:00.527Z,90.40
2023-03-15T09:48:24.635Z,90.90
2023-03-15T09:49:52.390Z,87.70
2023-03-15T09:51:04.988Z,91.30
2023-03-15T09:52:16.520Z,89.30
2023-03-15T09:53:24.437Z,91.70
2023-03-15T09:54:32.232Z,84.60
2023-03-15T09:55:33.975Z,86.40
2023-03-15T09:57:02.970Z,91.80
2023-03-15T09:58:12.299Z,90.60
2023-03-15T09:59:17.643Z,86.10
2023-03-15T10:00:43.543Z,84.90
2023-03-15T10:01:47.610Z,79.30
2023-03-15T10:02:59.440Z,81.40
2023-03-15T10:04:16.704Z,86.10
2023-03-15T10:05:23.030Z,84.70
2023-03-15T10:06:29.322Z,85.20
2023-03-15T10:07:32.171Z,83.70
2023-03-15T10:08:34.511Z,80.50
2023-03-15T10:09:36.399Z,78.90
2023-03-15T10:10:50.848Z,84.00
2023-03-15T10:11:58.326Z,90.80
2023-03-15T10:13:25.119Z,88.40
2023-03-15T10:15:11.011Z,82.10
2023-03-15T10:16:39.143Z,86.80
2023-03-15T10:17:58.887Z,86.80
2023-03-15T10:19:05.710Z,89.50
2023-03-15T10:20:23.796Z,87.00
2023-03-15T10:21:38.820Z,90.40
2023-03-15T10:22:43.610Z,92.50
2023-03-15T10:23:53.670Z,90.10
2023-03-15T10:25:02.223Z,91.80
2023-03-15T10:26:08.887Z,92.40
2023-03-15T10:27:16.022Z,94.90
2023-03-15T10:28:34.857Z,93.20
2023-03-15T10:29:39.194Z,95.40
2023-03-15T10:30:48.241Z,87.70
2023-03-15T10:31:52.601Z,90.00
2023-03-15T10:33:05.224Z,85.20
2023-03-15T10:34:09.168Z,80.70
2023-03-15T10:35:16.622Z,77.80
2023-03-15T10:36:21.104Z,82.40
2023-03-15T10:37:24.781Z,79.70
2023-03-15T10:38:27.520Z,82.10
2023-03-15T10:39:29.795Z,82.40
2023-03-15T10:40:49.427Z,84.80
2023-03-15T10:41:51.528Z,81.60
2023-03-15T10:42:54.096Z,76.80
2023-03-15T10:44:03.243Z,82.30
2023-03-15T10:45:25.649Z,82.40
2023-03-15T10:46:27.632Z,84.80
2023-03-15T10:47:29.461Z,82.30
2023-03-15T10:48:34.346Z,83.20
2023-03-15T10:49:37.995Z,78.70
2023-03-15T10:50:40.558Z,77.70
2023-03-15T10:51:51.305Z,78.30
2023-03-15T10:52:56.917Z,78.90
2023-03-15T10:54:25.080Z,81.40
2023-03-15T10:55:33.081Z,80.50
2023-03-15T10:57:02.414Z,76.90
2023-03-15T10:58:25.835Z,81.40
2023-03-15T10:59:30.784Z,81.00
2023-03-15T11:00:36.430Z,83.40
2023-03-15T11:01:38.287Z,75.80
2023-03-15T11:02:50.011Z,76.10
2023-03-15T11:04:05.241Z,79.50
2023-03-15T11:05:10.255Z,71.30
2023-03-15T11:06:25.854Z,72.90
2023-03-15T11:07:27.779Z,70.00
2023-03-15T11:08:39.355Z,72.80
2023-03-15T11:09:52.930Z,74.20
2023-03-15T11:10:59.528Z,71.70
2023-03-15T11:12:05.074Z,73.30
2023-03-15T11:13:29.991Z,73.70
2023-03-15T11:14:41.385Z,74.00
2023-03-15T11:16:09.724Z,72.60
2023-03-15T11:17:24.185Z,69.10
2023-03-15T11:18:43.268Z,71.00
2023-03-15T11:20:26.005Z,72.00
2023-03-15T11:21:33.761Z,71.20
2023-03-15T11:22:35.684Z,72.70
2023-03-15T11:23:41.340Z,72.70
2023-03-15T11:24:43.113Z,76.00
2023-03-15T11:25:45.669Z,73.30
2023-03-15T11:26:52.164Z,71.50
2023-03-15T11:27:53.926Z,71.90
2023-03-15T11:29:19.573Z,73.10
2023-03-15T11:30:28.533Z,72.20
2023-03-15T11:31:31.317Z,75.20
2023-03-15T11:32:33.592Z,73.20
2023-03-15T11:33:51.532Z,72.10
2023-03-15T11:35:14.017Z,76.00
2023-03-15T11:36:22.649Z,73.30
2023-03-15T11:37:34.929Z,74.50
2023-03-15T11:38:45.795Z,75.00
2023-03-15T11:40:14.971Z,72.40
2023-03-15T11:41:27.130Z,70.90
2023-03-15T11:42:36.802Z,70.30
2023-03-15T11:43:52.326Z,72.10
2023-03-15T11:44:58.559Z,71.20
2023-03-15T11:46:10.902Z,70.50
2023-03-15T11:47:32.759Z,73.70
2023-03-15T11:48:40.746Z,73.20
2023-03-15T11:49:56.504Z,71.20
2023-03-15T11:50:59.456Z,72.30
2023-03-15T11:52:01.320Z,71.20
2023-03-15T11:53:06.888Z,70.50
2023-03-15T11:54:14.265Z,71.10
2023-03-15T11:55:19.350Z,70.00
2023-03-15T11:56:25.449Z,69.90
2023-03-15T11:57:32.659Z,67.70
2023-03-15T11:58:42.404Z,67.40
2023-03-15T11:59:45.998Z,67.30
2023-03-15T12:00:49.482Z,68.30
2023-03-15T12:02:09.943Z,70.20
2023-03-15T12:03:36.092Z,68.00
2023-03-15T12:04:42.378Z,67.70
2023-03-15T12:06:08.835Z,68.60
2023-03-15T12:07:19.758Z,66.90
2023-03-15T12:08:25.243Z,67.90
2023-03-15T12:09:32.978Z,64.50
2023-03-15T12:10:46.559Z,64.70
2023-03-15T12:11:48.322Z,65.20
2023-03-15T12:13:05.654Z,65.20
2023-03-15T12:14:29.060Z,64.30
2023-03-15T12:15:30.786Z,64.20
2023-03-15T12:16:45.032Z,64.70
2023-03-15T12:17:58.300Z,64.50
2023-03-15T12:19:08.653Z,63.60
2023-03-15T12:20:19.025Z,67.40
2023-03-15T12:21:32.564Z,64.60
2023-03-15T12:22:35.765Z,65.20
2023-03-15T12:23:41.330Z,65.50
2023-03-15T12:24:46.622Z,65.80
2023-03-15T12:26:00.090Z,65.20
2023-03-15T12:27:05.663Z,64.60
2023-03-15T12:28:10.755Z,64.30
2023-03-15T12:29:25.891Z,65.70
2023-03-15T12:30:39.807Z,66.60
2023-03-15T12:32:10.548Z,64.60
2023-03-15T12:33:17.951Z,65.50
2023-03-15T12:34:44.287Z,63.50
2023-03-15T12:35:48.840Z,63.50
2023-03-15T12:36:56.060Z,64.30
2023-03-15T12:38:01.560Z,64.80
2023-03-15T12:39:15.358Z,63.40
2023-03-15T12:40:18.944Z,61.10
2023-03-15T12:41:51.671Z,62.40
2023-03-15T12:42:57.381Z,63.90
2023-03-15T12:44:25.520Z,61.70
2023-03-15T12:45:27.222Z,61.50
2023-03-15T12:46:43.922Z,62.40
2023-03-15T12:47:51.861Z,64.40
2023-03-15T12:49:13.106Z,63.30
2023-03-15T12:50:45.940Z,65.40
2023-03-15T12:52:01.526Z,63.40
2023-03-15T12:53:12.973Z,66.80
2023-03-15T12:54:16.308Z,64.40
2023-03-15T12:55:18.668Z,64.40
2023-03-15T12:56:34.925Z,63.20
2023-03-15T12:57:45.026Z,63.90
2023-03-15T12:58:48.796Z,64.60
2023-03-15T12:59:55.534Z,66.10
2023-03-15T13:01:07.023Z,64.80
2023-03-15T13:02:43.459Z,64.30
2023-03-15T13:03:46.350Z,64.50
2023-03-15T13:04:49.921Z,66.60
2023-03-15T13:06:25.677Z,66.40
2023-03-15T13:07:55.913Z,67.90
2023-03-15T13:09:09.588Z,68.30
2023-03-15T13:10:36.153Z,68.50
2023-03-15T13:11:55.520Z,70.00
2023-03-15T13:13:23.673Z,74.60
2023-03-15T13:15:02.241Z,77.30
2023-03-15T13:16:06.887Z,81.20
2023-03-15T13:17:17.216Z,83.20
2023-03-15T13:18:22.991Z,86.40
2023-03-15T13:19:36.256Z,91.70
2023-03-15T13:20:46.107Z,92.20
2023-03-15T13:22:02.150Z,95.00
2023-03-15T13:23:30.659Z,97.40
2023-03-15T13:24:56.529Z,96.20
2023-03-15T13:26:39.329Z,99.90
2023-03-15T13:27:53.830Z,99.80
2023-03-15T13:29:07.849Z,95.90
2023-03-15T13:30:29.083Z,96.60
2023-03-15T13:31:31.636Z,99.90
2023-03-15T13:32:34.248Z,96.50
2023-03-15T13:33:36.103Z,96.30
2023-03-15T13:34:37.915Z,97.60
2023-03-15T13:35:45.236Z,98.20
2023-03-15T13:36:53.240Z,98.40
2023-03-15T13:38:09.594Z,99.90
2023-03-15T13:39:27.448Z,99.90
2023-03-15T13:40:29.145Z,99.90
2023-03-15T13:41:32.059Z,99.90
2023-03-15T13:42:33.791Z,99.90
2023-03-15T13:43:37.909Z,99.90
2023-03-15T13:44:39.669Z,99.90
2023-03-15T13:45:44.677Z,99.90
2023-03-15T13:46:51.264Z,99.90
2023-03-15T13:47:52.981Z,99.90
2023-03-15T13:48:56.244Z,99.90
2023-03-15T13:49:57.947Z,99.90
2023-03-15T13:51:25.782Z,99.90
2023-03-15T13:52:27.588Z,99.90
2023-03-15T13:53:48.268Z,99.90
2023-03-15T13:54:53.972Z,99.90
2023-03-15T13:55:57.133Z,99.90
2023-03-15T13:57:01.698Z,98.70
2023-03-15T13:58:08.562Z,99.90
2023-03-15T13:59:12.304Z,99.90
2023-03-15T14:00:17.804Z,99.90
2023-03-15T14:01:23.224Z,99.90
2023-03-15T14:02:28.459Z,99.90